createdAt,value
2023-04-17T00:00:44.653Z,21.92
2023-04-17T00:05:45.699Z,27.00
2023-04-17T00:10:47.112Z,27.90
2023-04-17T00:15:52.221Z,29.65
2023-04-17T00:20:51.775Z,30.85
2023-04-17T00:25:49.909Z,23.58
2023-04-17T00:30:48.100Z,27.27
2023-04-17T00:35:46.239Z,24.00
2023-04-17T00:40:46.366Z,29.67
2023-04-17T00:45:44.616Z,24.45
2023-04-17T00:50:43.167Z,26.25
2023-04-17T00:55:42.251Z,21.75
2023-04-17T01:00:42.154Z,26.42
2023-04-17T01:05:40.695Z,23.00
2023-04-17T01:10:41.066Z,25.73
2023-04-17T01:15:39.978Z,21.55
2023-04-17T01:20:39.678Z,24.85
2023-04-17T01:25:39.240Z,25.08
2023-04-17T01:30:37.714Z,21.60
2023-04-17T01:35:40.361Z,27.17
2023-04-17T01:40:39.950Z,20.77
2023-04-17T01:45:38.270Z,23.13
2023-04-17T01:50:36.503Z,27.20
2023-04-17T01:55:34.654Z,22.20
2023-04-17T02:00:34.215Z,24.05
2023-04-17T02:05:32.394Z,23.20
2023-04-17T02:10:31.660Z,21.63
2023-04-17T02:15:29.859Z,24.13
2023-04-17T02:20:30.135Z,22.45
2023-04-17T02:25:30.056Z,26.88
2023-04-17T02:30:28.808Z,26.58
2023-04-17T02:35:31.264Z,26.85
2023-04-17T02:40:29.814Z,19.23
2023-04-17T02:45:32.719Z,27.50
2023-04-17T02:50:33.853Z,24.25
2023-04-17T02:55:39.710Z,33.58
2023-04-17T03:00:38.141Z,26.60
2023-04-17T03:05:37.970Z,29.38
2023-04-17T03:10:36.176Z,28.77
2023-04-17T03:15:35.193Z,27.55
2023-04-17T03:20:33.412Z,26.15
2023-04-17T03:25:33.139Z,22.75
2023-04-17T03:30:32.176Z,21.08
2023-04-17T03:35:34.504Z,23.13
2023-04-17T03:40:38.431Z,20.63
2023-04-17T03:45:37.195Z,20.63
2023-04-17T03:50:35.678Z,25.38
2023-04-17T03:55:33.996Z,27.77
2023-04-17T04:00:33.633Z,27.50
2023-04-17T04:05:38.127Z,25.40
2023-04-17T04:10:38.941Z,22.75
2023-04-17T04:15:39.306Z,26.35
2023-04-17T04:20:38.586Z,27.02
2023-04-17T04:25:46.201Z,24.92
2023-04-17T04:31:02.799Z,22.90
2023-04-17T04:36:07.131Z,19.92
2023-04-17T04:41:10.390Z,21.17
2023-04-17T04:46:11.715Z,23.60
2023-04-17T04:56:13.625Z,17.92
2023-04-17T05:01:13.531Z,24.70
2023-04-17T05:06:15.980Z,19.33
2023-04-17T05:11:23.810Z,23.20
2023-04-17T05:16:24.138Z,20.05
2023-04-17T05:21:22.679Z,26.55
2023-04-17T05:26:23.117Z,19.38
2023-04-17T05:31:22.253Z,22.08
2023-04-17T05:36:22.392Z,23.85
2023-04-17T05:41:21.677Z,26.27
2023-04-17T05:46:20.532Z,24.42
2023-04-17T05:51:18.789Z,23.50
2023-04-17T05:56:18.410Z,23.67
2023-04-17T06:01:17.784Z,27.70
2023-04-17T06:06:16.059Z,22.05
2023-04-17T06:11:15.778Z,25.70
2023-04-17T06:16:16.479Z,21.50
2023-04-17T06:21:17.203Z,19.25
2023-04-17T06:26:15.678Z,24.05
2023-04-17T06:31:13.847Z,23.27
2023-04-17T06:36:13.658Z,25.67
2023-04-17T06:41:18.345Z,23.95
2023-04-17T06:46:16.731Z,19.77
2023-04-17T06:51:17.961Z,22.50
2023-04-17T06:56:16.263Z,19.88
2023-04-17T07:01:15.077Z,24.38
2023-04-17T07:06:13.450Z,15.15
2023-04-17T07:11:12.982Z,20.45
2023-04-17T07:16:11.200Z,16.13
2023-04-17T07:21:09.336Z,16.45
2023-04-17T07:26:07.488Z,16.27
2023-04-17T07:31:08.801Z,17.42
2023-04-17T07:36:08.555Z,17.90
2023-04-17T07:41:06.745Z,16.10
2023-04-17T07:46:04.973Z,16.92
2023-04-17T07:51:04.682Z,17.42
2023-04-17T07:56:02.882Z,18.15
2023-04-17T08:01:02.007Z,15.15
2023-04-17T08:06:00.344Z,16.65
2023-04-17T08:10:59.862Z,13.23
2023-04-17T08:15:58.060Z,11.45
2023-04-17T08:20:56.259Z,13.32
2023-04-17T08:25:54.434Z,11.07
2023-04-17T08:30:53.994Z,12.65
2023-04-17T08:35:52.612Z,12.98
2023-04-17T08:40:52.273Z,23.92
2023-04-17T08:45:54.063Z,19.40
2023-04-17T08:50:54.759Z,12.57
2023-04-17T08:55:53.047Z,14.65
2023-04-17T09:00:51.235Z,13.73
2023-04-17T09:05:49.431Z,12.45
2023-04-17T09:10:49.611Z,17.58
2023-04-17T09:15:48.654Z,14.73
2023-04-17T09:20:49.875Z,15.68
2023-04-17T09:26:05.966Z,16.80
2023-04-17T09:31:05.123Z,11.65
2023-04-17T09:36:22.506Z,8.18
2023-04-17T09:41:25.498Z,7.20
2023-04-17T09:46:33.204Z,10.48
2023-04-17T09:51:32.041Z,8.73
2023-04-17T09:56:33.744Z,11.00
2023-04-17T10:01:32.568Z,7.50
2023-04-17T10:06:31.637Z,8.85
2023-04-17T10:11:32.093Z,9.77
2023-04-17T10:16:35.250Z,9.60
2023-04-17T10:21:35.094Z,7.10
2023-04-17T10:26:37.941Z,8.05
2023-04-17T10:31:54.844Z,7.35
2023-04-17T10:36:53.243Z,6.15
2023-04-17T10:42:04.545Z,6.90
2023-04-17T10:47:06.717Z,6.82
2023-04-17T10:52:04.884Z,14.27
2023-04-17T10:57:11.066Z,7.50
2023-04-17T11:02:09.487Z,8.35
2023-04-17T11:07:07.992Z,10.77
2023-04-17T11:12:07.780Z,8.18
2023-04-17T11:17:06.028Z,7.55
2023-04-17T11:22:04.383Z,8.32
2023-04-17T11:27:03.869Z,12.07
2023-04-17T11:32:03.743Z,15.07
2023-04-17T11:37:03.143Z,8.85
2023-04-17T11:42:02.457Z,10.52
2023-04-17T11:47:00.813Z,9.15
2023-04-17T11:52:02.116Z,9.13
2023-04-17T11:57:01.519Z,47.00
2023-04-17T12:02:00.815Z,17.55
2023-04-17T12:06:59.859Z,13.63
2023-04-17T12:11:59.802Z,12.98
2023-04-17T12:16:58.009Z,21.25
2023-04-17T12:21:56.696Z,15.88
2023-04-17T12:26:54.990Z,14.60
2023-04-17T12:31:54.585Z,20.33
2023-04-17T12:36:53.001Z,12.43
2023-04-17T12:41:51.166Z,25.88
2023-04-17T12:46:49.325Z,16.95
2023-04-17T12:51:48.821Z,20.33
2023-04-17T12:56:48.417Z,19.23
2023-04-17T13:01:47.724Z,18.27
2023-04-17T13:06:45.870Z,17.23
2023-04-17T13:11:45.380Z,16.10
2023-04-17T13:16:43.760Z,20.40
2023-04-17T13:21:41.936Z,18.83
2023-04-17T13:26:40.166Z,30.70
2023-04-17T13:31:39.690Z,17.27
2023-04-17T13:36:37.868Z,23.23
2023-04-17T13:41:36.013Z,19.98
2023-04-17T13:46:35.198Z,24.80
2023-04-17T13:51:34.724Z,22.20
2023-04-17T13:56:32.874Z,31.65
2023-04-17T14:01:31.055Z,26.05
2023-04-17T14:06:29.270Z,10.88
2023-04-17T14:11:28.765Z,19.67
2023-04-17T14:16:27.626Z,23.25
2023-04-17T14:21:25.854Z,16.42
2023-04-17T14:26:23.986Z,12.77
2023-04-17T14:31:23.773Z,16.45
2023-04-17T14:36:21.949Z,17.35
2023-04-17T14:41:20.170Z,13.75
2023-04-17T14:46:18.317Z,12.98
2023-04-17T14:51:17.833Z,13.20
2023-04-17T14:56:16.010Z,21.02
2023-04-17T15:01:14.311Z,20.48
2023-04-17T15:06:12.443Z,17.55
2023-04-17T15:11:11.990Z,23.17
2023-04-17T15:16:10.367Z,21.25
2023-04-17T15:21:08.929Z,18.83
2023-04-17T15:26:07.290Z,20.75
2023-04-17T15:31:06.993Z,19.02
2023-04-17T15:36:05.260Z,18.65
2023-04-17T15:41:04.001Z,21.25
2023-04-17T15:46:03.485Z,14.80
2023-04-17T15:51:04.880Z,17.73
2023-04-17T15:56:03.093Z,16.17
2023-04-17T16:01:01.265Z,23.77
2023-04-17T16:05:59.486Z,13.65
2023-04-17T16:10:59.808Z,20.42
2023-04-17T16:15:58.134Z,15.25
2023-04-17T16:20:56.281Z,15.95
2023-04-17T16:25:55.305Z,16.55
2023-04-17T16:30:54.846Z,19.00
2023-04-17T16:35:52.979Z,21.70
2023-04-17T16:40:53.659Z,13.48
2023-04-17T16:45:51.825Z,24.27
2023-04-17T16:50:51.381Z,13.07
2023-04-17T16:55:49.613Z,16.10
2023-04-17T17:00:47.955Z,21.05
2023-04-17T17:05:46.086Z,12.93
2023-04-17T17:10:45.653Z,11.48
2023-04-17T17:15:43.795Z,16.50
2023-04-17T17:20:41.963Z,16.27
2023-04-17T17:25:40.118Z,11.82
2023-04-17T17:30:39.633Z,12.43
2023-04-17T17:35:38.306Z,12.02
2023-04-17T17:40:36.850Z,14.63
2023-04-17T17:45:35.017Z,11.45
2023-04-17T17:50:34.665Z,8.80
2023-04-17T17:55:37.204Z,12.63
2023-04-17T18:00:35.860Z,11.27
2023-04-17T18:05:35.646Z,8.75
2023-04-17T18:10:34.848Z,10.43
2023-04-17T18:15:33.203Z,9.95
2023-04-17T18:20:31.353Z,16.13
2023-04-17T18:25:30.838Z,13.50
2023-04-17T18:30:28.996Z,11.20
2023-04-17T18:35:27.236Z,8.85
2023-04-17T18:40:25.398Z,12.32
2023-04-17T18:45:24.896Z,12.57
2023-04-17T18:50:23.047Z,12.55
2023-04-17T18:55:21.198Z,9.73
2023-04-17T19:00:19.363Z,14.23
2023-04-17T19:05:20.453Z,7.35
2023-04-17T19:10:18.660Z,13.05
2023-04-17T19:15:17.681Z,9.80
2023-04-17T19:20:16.903Z,9.85
2023-04-17T19:25:16.451Z,18.20
2023-04-17T19:30:14.701Z,10.18
2023-04-17T19:35:12.832Z,13.50
2023-04-17T19:40:21.526Z,12.23
2023-04-17T19:45:23.676Z,19.00
2023-04-17T19:50:21.860Z,10.85
2023-04-17T19:55:20.718Z,12.15
2023-04-17T20:00:18.966Z,11.05
2023-04-17T20:05:18.936Z,11.43
2023-04-17T20:10:17.114Z,15.57
2023-04-17T20:15:19.760Z,10.07
2023-04-17T20:20:19.275Z,14.43
2023-04-17T20:25:18.840Z,21.65
2023-04-17T20:30:19.687Z,9.93
2023-04-17T20:35:20.975Z,9.63
2023-04-17T20:40:19.285Z,11.75
2023-04-17T20:45:17.522Z,9.38
2023-04-17T20:50:15.829Z,10.75
2023-04-17T20:55:15.366Z,7.03
2023-04-17T21:00:13.902Z,11.90
2023-04-17T21:05:12.120Z,9.63
2023-04-17T21:10:10.335Z,10.65
2023-04-17T21:15:10.679Z,13.25
2023-04-17T21:20:09.628Z,7.32
2023-04-17T21:25:08.472Z,7.55
2023-04-17T21:30:08.129Z,7.97
2023-04-17T21:35:09.498Z,9.27
2023-04-17T21:40:08.241Z,9.55
2023-04-17T21:45:06.996Z,6.47
2023-04-17T21:50:05.390Z,7.65
2023-04-17T21:55:05.733Z,8.07
2023-04-17T22:00:05.765Z,9.15
2023-04-17T22:05:05.091Z,10.70
2023-04-17T22:10:03.442Z,7.32
2023-04-17T22:15:02.995Z,10.00
2023-04-17T22:20:01.135Z,10.05
2023-04-17T22:24:59.277Z,10.70
2023-04-17T22:29:57.633Z,6.32
2023-04-17T22:34:57.135Z,7.53
2023-04-17T22:39:55.636Z,8.13
2023-04-17T22:44:53.821Z,8.02
2023-04-17T22:49:52.607Z,8.50
2023-04-17T22:54:52.125Z,11.85
2023-04-17T22:59:50.256Z,12.23
2023-04-17T23:04:48.417Z,9.90
2023-04-17T23:09:47.111Z,12.23
2023-04-17T23:14:48.428Z,11.70
2023-04-17T23:19:46.698Z,12.52
2023-04-17T23:24:44.822Z,9.82
2023-04-17T23:29:42.966Z,12.70
2023-04-17T23:34:42.675Z,11.93
2023-04-17T23:39:40.786Z,9.52
2023-04-17T23:44:38.895Z,8.93
2023-04-17T23:49:37.036Z,9.55
2023-04-17T23:54:36.538Z,11.13
2023-04-17T23:59:34.644Z,12.63
